createdAt,value
2023-03-26T00:01:38.373Z,55.33
2023-03-26T00:04:05.881Z,55.56
2023-03-26T00:06:36.714Z,56.78
2023-03-26T00:09:04.048Z,56.39
2023-03-26T00:11:30.768Z,58.10
2023-03-26T00:13:57.562Z,58.68
2023-03-26T00:16:28.289Z,58.58
2023-03-26T00:18:55.019Z,58.00
2023-03-26T00:21:27.852Z,58.87
2023-03-26T00:23:55.823Z,58.34
2023-03-26T00:26:22.560Z,58.73
2023-03-26T00:28:50.776Z,57.80
2023-03-26T00:31:17.324Z,57.08
2023-03-26T00:33:43.683Z,56.59
2023-03-26T00:36:14.685Z,55.69
2023-03-26T00:38:41.501Z,56.02
2023-03-26T00:41:18.008Z,54.41
2023-03-26T00:43:46.316Z,52.74
2023-03-26T00:46:12.843Z,52.31
2023-03-26T00:48:45.427Z,54.20
2023-03-26T00:51:15.251Z,54.06
2023-03-26T00:53:42.495Z,54.47
2023-03-26T00:56:09.071Z,54.43
2023-03-26T00:58:35.727Z,52.50
2023-03-26T01:01:03.804Z,52.83
2023-03-26T01:03:33.741Z,52.81
2023-03-26T01:06:08.183Z,54.24
2023-03-26T01:08:42.084Z,55.23
2023-03-26T01:11:14.217Z,56.41
2023-03-26T01:13:48.725Z,58.65
2023-03-26T01:16:20.314Z,60.94
2023-03-26T01:18:48.685Z,63.68
2023-03-26T01:21:22.446Z,66.27
2023-03-26T01:23:59.850Z,68.44
2023-03-26T01:26:57.263Z,72.87
2023-03-26T01:29:33.798Z,77.48
2023-03-26T01:32:09.539Z,81.81
2023-03-26T01:34:43.051Z,86.64
2023-03-26T01:37:38.672Z,90.12
2023-03-26T01:40:23.810Z,94.41
2023-03-26T01:43:13.300Z,97.14
2023-03-26T01:45:40.284Z,99.11
2023-03-26T01:48:06.764Z,100.00
2023-03-26T01:50:33.515Z,100.00
2023-03-26T01:52:59.880Z,100.00
2023-03-26T01:55:29.988Z,97.12
2023-03-26T01:58:08.786Z,95.18
2023-03-26T02:00:42.609Z,91.32
2023-03-26T02:03:26.295Z,85.59
2023-03-26T02:05:58.008Z,80.62
2023-03-26T02:08:35.861Z,76.19
2023-03-26T02:11:05.237Z,74.48
2023-03-26T02:13:31.606Z,72.42
2023-03-26T02:16:02.000Z,69.57
2023-03-26T02:18:39.117Z,67.11
2023-03-26T02:21:09.846Z,65.41
2023-03-26T02:23:38.413Z,65.20
2023-03-26T02:26:11.153Z,63.26
2023-03-26T02:28:37.939Z,60.98
2023-03-26T02:31:04.911Z,58.98
2023-03-26T02:33:31.575Z,57.00
2023-03-26T02:36:04.537Z,55.85
2023-03-26T02:38:35.289Z,56.70
2023-03-26T02:41:02.418Z,56.68
2023-03-26T02:43:28.937Z,55.70
2023-03-26T02:45:58.510Z,54.38
2023-03-26T02:48:25.243Z,53.82
2023-03-26T02:50:54.208Z,52.67
2023-03-26T02:53:29.816Z,52.37
2023-03-26T02:55:57.300Z,52.57
2023-03-26T02:58:25.267Z,53.46
2023-03-26T03:00:54.936Z,52.87
2023-03-26T03:03:24.308Z,53.72
2023-03-26T03:05:52.229Z,54.27
2023-03-26T03:08:19.646Z,53.20
2023-03-26T03:11:11.976Z,53.91
2023-03-26T03:13:38.525Z,53.89
2023-03-26T03:16:05.572Z,53.44
2023-03-26T03:18:31.914Z,53.43
2023-03-26T03:20:58.489Z,52.76
2023-03-26T03:23:25.208Z,53.14
2023-03-26T03:25:52.717Z,52.49
2023-03-26T03:28:20.054Z,50.95
2023-03-26T03:30:47.214Z,50.55
2023-03-26T03:33:13.683Z,49.90
2023-03-26T03:35:41.455Z,49.55
2023-03-26T03:38:07.932Z,48.35
2023-03-26T03:40:34.463Z,48.05
2023-03-26T03:43:00.846Z,46.99
2023-03-26T03:45:27.237Z,47.14
2023-03-26T03:47:54.215Z,46.44
2023-03-26T03:50:21.030Z,46.34
2023-03-26T03:52:47.381Z,44.91
2023-03-26T03:55:14.075Z,44.31
2023-03-26T03:57:40.526Z,44.65
2023-03-26T04:00:10.247Z,42.63
2023-03-26T04:02:36.736Z,43.35
2023-03-26T04:05:04.023Z,43.18
2023-03-26T04:07:31.150Z,43.57
2023-03-26T04:10:00.124Z,42.49
2023-03-26T04:12:29.877Z,42.18
2023-03-26T04:14:56.549Z,42.33
2023-03-26T04:17:23.051Z,42.33
2023-03-26T04:19:50.569Z,39.86
2023-03-26T04:22:18.329Z,38.76
2023-03-26T04:24:45.124Z,35.47
2023-03-26T04:27:13.359Z,32.03
2023-03-26T04:29:44.103Z,31.87
2023-03-26T04:32:12.624Z,30.26
2023-03-26T04:34:38.962Z,29.80
2023-03-26T04:37:05.517Z,29.21
2023-03-26T04:39:34.052Z,30.08
2023-03-26T04:42:00.756Z,33.56
2023-03-26T04:44:30.205Z,36.47
2023-03-26T04:46:56.780Z,36.50
2023-03-26T04:49:23.181Z,33.27
2023-03-26T04:51:49.728Z,33.26
2023-03-26T04:54:16.553Z,36.31
2023-03-26T04:56:59.769Z,39.98
2023-03-26T04:59:34.508Z,40.63
2023-03-26T05:02:05.020Z,41.30
2023-03-26T05:04:31.541Z,41.44
2023-03-26T05:06:59.297Z,42.34
2023-03-26T05:09:26.256Z,42.01
2023-03-26T05:11:52.657Z,42.16
2023-03-26T05:14:19.158Z,41.49
2023-03-26T05:16:46.426Z,41.39
2023-03-26T05:19:13.027Z,41.25
2023-03-26T05:21:39.361Z,41.06
2023-03-26T05:24:06.352Z,40.51
2023-03-26T05:26:33.620Z,39.73
2023-03-26T05:29:00.241Z,36.38
2023-03-26T05:31:32.686Z,31.88
2023-03-26T05:34:00.620Z,32.26
2023-03-26T05:36:28.346Z,31.95
2023-03-26T05:38:56.472Z,32.73
2023-03-26T05:41:22.817Z,34.41
2023-03-26T05:43:49.196Z,34.56
2023-03-26T05:46:15.698Z,33.74
2023-03-26T05:48:42.187Z,31.29
2023-03-26T05:51:08.712Z,30.36
2023-03-26T05:53:35.192Z,29.76
2023-03-26T05:56:01.980Z,28.01
2023-03-26T05:58:29.327Z,26.71
2023-03-26T06:01:09.493Z,27.08
2023-03-26T06:03:39.988Z,32.98
2023-03-26T06:06:07.721Z,37.42
2023-03-26T06:08:34.257Z,40.14
2023-03-26T06:11:01.837Z,53.54
2023-03-26T06:13:28.332Z,51.35
2023-03-26T06:15:54.733Z,52.93
2023-03-26T06:18:21.246Z,52.20
2023-03-26T06:20:47.620Z,50.19
2023-03-26T06:23:13.976Z,49.26
2023-03-26T06:25:41.287Z,51.19
2023-03-26T06:28:07.622Z,52.76
2023-03-26T06:30:34.179Z,49.80
2023-03-26T06:33:00.603Z,48.76
2023-03-26T06:35:27.217Z,50.60
2023-03-26T06:37:53.551Z,49.66
2023-03-26T06:40:20.101Z,42.12
2023-03-26T06:43:07.064Z,41.78
2023-03-26T06:45:33.282Z,41.63
2023-03-26T06:48:00.141Z,41.00
2023-03-26T06:50:27.349Z,40.38
2023-03-26T06:52:54.793Z,41.29
2023-03-26T06:55:21.198Z,40.92
2023-03-26T06:57:54.517Z,41.35
2023-03-26T07:00:21.017Z,41.74
2023-03-26T07:02:47.480Z,49.00
2023-03-26T07:05:14.176Z,50.80
2023-03-26T07:07:46.422Z,56.11
2023-03-26T07:10:13.435Z,58.02
2023-03-26T07:12:39.822Z,58.06
2023-03-26T07:15:06.803Z,57.39
2023-03-26T07:17:33.191Z,57.66
2023-03-26T07:20:01.339Z,59.28
2023-03-26T07:22:27.967Z,58.11
2023-03-26T07:24:54.802Z,58.38
2023-03-26T07:27:37.678Z,57.81
2023-03-26T07:30:35.431Z,59.41
2023-03-26T07:33:05.708Z,59.36
2023-03-26T07:35:53.189Z,59.96
2023-03-26T07:38:44.391Z,58.97
2023-03-26T07:41:41.370Z,62.72
2023-03-26T07:44:34.630Z,68.54
2023-03-26T07:47:04.915Z,66.90
2023-03-26T07:49:31.573Z,59.55
2023-03-26T07:51:58.621Z,59.04
2023-03-26T07:54:25.574Z,47.33
2023-03-26T07:56:58.842Z,46.04
2023-03-26T07:59:37.097Z,54.86
2023-03-26T08:02:25.360Z,62.22
2023-03-26T08:05:21.293Z,64.06
2023-03-26T08:07:53.704Z,64.07
2023-03-26T08:10:27.388Z,64.77
2023-03-26T08:13:06.441Z,65.10
2023-03-26T08:15:45.121Z,64.22
2023-03-26T08:18:35.629Z,65.00
2023-03-26T08:21:27.232Z,63.38
2023-03-26T08:24:00.929Z,63.34
2023-03-26T08:26:44.174Z,75.65
2023-03-26T08:29:21.347Z,94.84
2023-03-26T08:31:48.276Z,91.84
2023-03-26T08:34:14.720Z,92.10
2023-03-26T08:36:41.151Z,92.63
2023-03-26T08:39:08.434Z,93.24
2023-03-26T08:41:43.785Z,98.09
2023-03-26T08:44:22.461Z,93.54
2023-03-26T08:47:10.204Z,96.03
2023-03-26T08:49:58.509Z,92.76
2023-03-26T08:52:43.593Z,93.36
2023-03-26T08:55:20.763Z,93.06
2023-03-26T08:58:11.934Z,100.00
2023-03-26T09:01:03.058Z,100.00
2023-03-26T09:03:39.243Z,100.00
2023-03-26T09:06:31.104Z,100.00
2023-03-26T09:09:19.266Z,100.00
2023-03-26T09:12:07.994Z,99.38
2023-03-26T09:14:45.370Z,100.00
2023-03-26T09:17:27.695Z,99.15
2023-03-26T09:20:21.894Z,100.00
2023-03-26T09:22:59.586Z,95.79
2023-03-26T09:25:47.607Z,90.89
2023-03-26T09:28:32.252Z,86.21
2023-03-26T09:31:36.074Z,86.34
2023-03-26T09:34:20.591Z,85.72
2023-03-26T09:37:26.644Z,74.41
2023-03-26T09:40:12.008Z,77.83
2023-03-26T09:42:56.258Z,89.43
2023-03-26T09:45:38.706Z,100.00
2023-03-26T09:48:20.025Z,100.00
2023-03-26T09:51:07.733Z,95.84
2023-03-26T09:54:06.653Z,99.55
2023-03-26T09:56:58.020Z,97.93
2023-03-26T09:59:46.948Z,100.00
2023-03-26T10:02:22.567Z,100.00
2023-03-26T10:05:41.351Z,100.00
2023-03-26T10:08:24.643Z,100.00
2023-03-26T10:10:58.278Z,100.00
2023-03-26T10:13:52.420Z,100.00
2023-03-26T10:16:27.978Z,100.00
2023-03-26T10:19:19.093Z,100.00
2023-03-26T10:21:52.210Z,100.00
2023-03-26T10:24:30.750Z,100.00
2023-03-26T10:27:13.740Z,100.00
2023-03-26T10:30:11.240Z,100.00
2023-03-26T10:33:04.964Z,100.00
2023-03-26T10:36:02.278Z,100.00
2023-03-26T10:38:52.079Z,100.00
2023-03-26T10:41:21.572Z,100.00
2023-03-26T10:44:07.395Z,100.00
2023-03-26T10:46:41.050Z,100.00
2023-03-26T10:49:13.554Z,100.00
2023-03-26T10:51:53.586Z,100.00
2023-03-26T10:54:44.445Z,100.00
2023-03-26T10:57:43.899Z,100.00
2023-03-26T11:00:17.583Z,100.00
2023-03-26T11:03:11.192Z,100.00
2023-03-26T11:05:49.276Z,100.00
2023-03-26T11:08:18.615Z,100.00
2023-03-26T11:11:11.074Z,100.00
2023-03-26T11:13:58.823Z,100.00
2023-03-26T11:16:51.382Z,100.00
2023-03-26T11:19:53.189Z,100.00
2023-03-26T11:22:25.117Z,100.00
2023-03-26T11:25:06.954Z,100.00
2023-03-26T11:27:39.999Z,100.00
2023-03-26T11:30:16.638Z,100.00
2023-03-26T11:32:45.271Z,100.00
2023-03-26T11:35:39.878Z,100.00
2023-03-26T11:38:21.656Z,100.00
2023-03-26T11:40:50.657Z,100.00
2023-03-26T11:43:19.085Z,100.00
2023-03-26T11:45:46.120Z,100.00
2023-03-26T11:48:17.115Z,100.00
2023-03-26T11:50:52.461Z,100.00
2023-03-26T11:53:20.616Z,100.00
2023-03-26T11:56:00.866Z,100.00
2023-03-26T11:58:30.987Z,100.00
2023-03-26T12:00:57.494Z,100.00
2023-03-26T12:03:24.181Z,100.00
2023-03-26T12:05:53.967Z,100.00
2023-03-26T12:08:39.097Z,100.00
2023-03-26T12:11:11.751Z,100.00
2023-03-26T12:13:43.460Z,100.00
2023-03-26T12:16:14.423Z,100.00
2023-03-26T12:18:43.154Z,100.00
2023-03-26T12:21:12.583Z,100.00
2023-03-26T12:23:43.695Z,100.00
2023-03-26T12:26:14.297Z,100.00
2023-03-26T12:28:44.632Z,100.00
2023-03-26T12:31:11.813Z,100.00
2023-03-26T12:33:38.940Z,100.00
2023-03-26T12:36:24.618Z,100.00
2023-03-26T12:39:16.811Z,100.00
2023-03-26T12:44:42.879Z,100.00
2023-03-26T12:44:59.279Z,100.00
2023-03-26T12:47:57.978Z,100.00
2023-03-26T12:50:17.336Z,100.00
2023-03-26T12:52:56.412Z,100.00
2023-03-26T12:55:36.719Z,100.00
2023-03-26T12:58:13.729Z,100.00
2023-03-26T13:01:07.727Z,100.00
2023-03-26T13:03:41.988Z,100.00
2023-03-26T13:06:27.583Z,100.00
2023-03-26T13:09:07.121Z,100.00
2023-03-26T13:11:36.444Z,100.00
2023-03-26T13:14:32.785Z,100.00
2023-03-26T13:17:15.040Z,100.00
2023-03-26T13:20:15.746Z,100.00
2023-03-26T13:22:57.500Z,100.00
2023-03-26T13:25:27.019Z,100.00
2023-03-26T13:28:23.800Z,100.00
2023-03-26T13:31:13.092Z,100.00
2023-03-26T13:34:21.151Z,100.00
2023-03-26T13:37:14.607Z,100.00
2023-03-26T13:39:51.006Z,100.00
2023-03-26T13:42:21.759Z,100.00
2023-03-26T13:44:52.671Z,100.00
2023-03-26T13:47:34.712Z,100.00
2023-03-26T13:50:10.188Z,100.00
2023-03-26T13:52:43.964Z,100.00
2023-03-26T13:55:22.776Z,100.00
2023-03-26T13:58:00.144Z,100.00
2023-03-26T14:00:32.446Z,100.00
2023-03-26T14:03:03.604Z,100.00
2023-03-26T14:05:49.768Z,100.00
2023-03-26T14:08:25.118Z,100.00
2023-03-26T14:10:54.426Z,100.00
2023-03-26T14:13:30.406Z,100.00
2023-03-26T14:16:17.058Z,100.00
2023-03-26T14:18:47.603Z,100.00
2023-03-26T14:21:50.571Z,100.00
2023-03-26T14:24:20.311Z,100.00
2023-03-26T14:27:05.442Z,100.00
2023-03-26T14:29:57.010Z,100.00
2023-03-26T14:32:46.619Z,100.00
2023-03-26T14:35:33.620Z,100.00
2023-03-26T14:38:12.333Z,100.00
2023-03-26T14:41:08.170Z,100.00
2023-03-26T14:43:41.809Z,100.00
2023-03-26T14:46:31.294Z,100.00
2023-03-26T14:49:03.819Z,100.00
2023-03-26T14:51:49.062Z,100.00
2023-03-26T14:54:23.404Z,100.00
2023-03-26T14:56:58.223Z,100.00
2023-03-26T14:59:55.880Z,100.00
2023-03-26T15:02:22.718Z,100.00
2023-03-26T15:05:11.285Z,100.00
2023-03-26T15:08:19.856Z,100.00
2023-03-26T15:11:24.292Z,100.00
2023-03-26T15:14:20.920Z,100.00
2023-03-26T15:17:12.534Z,100.00
2023-03-26T15:19:48.329Z,100.00
2023-03-26T15:22:39.520Z,100.00
2023-03-26T15:25:33.209Z,100.00
2023-03-26T15:28:24.572Z,100.00
2023-03-26T15:31:31.706Z,100.00
2023-03-26T15:34:07.383Z,100.00
2023-03-26T15:36:37.172Z,100.00
2023-03-26T15:39:37.973Z,100.00
2023-03-26T15:42:10.985Z,100.00
2023-03-26T15:45:08.804Z,100.00
2023-03-26T15:47:37.989Z,100.00
2023-03-26T15:50:16.877Z,100.00
2023-03-26T15:52:52.050Z,100.00
2023-03-26T15:55:27.674Z,100.00
2023-03-26T15:58:04.178Z,100.00
2023-03-26T16:00:41.950Z,100.00
2023-03-26T16:03:15.462Z,100.00
2023-03-26T16:05:54.020Z,100.00
2023-03-26T16:08:26.889Z,100.00
2023-03-26T16:11:00.301Z,100.00
2023-03-26T16:13:43.557Z,100.00
2023-03-26T16:16:11.571Z,100.00
2023-03-26T16:18:54.209Z,100.00
2023-03-26T16:21:38.372Z,100.00
2023-03-26T16:24:08.166Z,100.00
2023-03-26T16:26:43.807Z,100.00
2023-03-26T16:29:18.297Z,100.00
2023-03-26T16:32:09.837Z,100.00
2023-03-26T16:34:55.613Z,100.00
2023-03-26T16:37:40.770Z,100.00
2023-03-26T16:40:25.348Z,100.00
2023-03-26T16:42:57.682Z,100.00
2023-03-26T16:45:37.088Z,100.00
2023-03-26T16:48:41.258Z,100.00
2023-03-26T16:51:35.292Z,100.00
2023-03-26T16:54:36.713Z,100.00
2023-03-26T16:57:28.494Z,100.00
2023-03-26T17:00:15.994Z,100.00
2023-03-26T17:03:12.849Z,100.00
2023-03-26T17:05:56.412Z,100.00
2023-03-26T17:08:47.785Z,100.00
2023-03-26T17:11:41.961Z,100.00
2023-03-26T17:14:11.285Z,100.00
2023-03-26T17:16:41.050Z,100.00
2023-03-26T17:19:29.571Z,100.00
2023-03-26T17:22:17.005Z,100.00
2023-03-26T17:25:11.945Z,100.00
2023-03-26T17:27:49.821Z,100.00
2023-03-26T17:30:48.404Z,100.00
2023-03-26T17:33:34.643Z,100.00
2023-03-26T17:36:16.071Z,100.00
2023-03-26T17:38:48.597Z,100.00
2023-03-26T17:41:35.904Z,100.00
2023-03-26T17:44:05.757Z,100.00
2023-03-26T17:46:33.086Z,100.00
2023-03-26T17:49:12.749Z,100.00
2023-03-26T17:51:52.599Z,100.00
2023-03-26T17:54:41.302Z,100.00
2023-03-26T17:57:22.806Z,100.00
2023-03-26T17:59:50.112Z,100.00
2023-03-26T18:02:21.682Z,100.00
2023-03-26T18:04:51.101Z,100.00
2023-03-26T18:07:31.132Z,100.00
2023-03-26T18:10:16.860Z,100.00
2023-03-26T18:13:32.812Z,100.00
2023-03-26T18:16:09.444Z,100.00
2023-03-26T18:18:53.880Z,100.00
2023-03-26T18:21:35.942Z,100.00
2023-03-26T18:24:03.222Z,100.00
2023-03-26T18:26:37.583Z,100.00
2023-03-26T18:29:27.427Z,100.00
2023-03-26T18:32:00.276Z,100.00
2023-03-26T18:34:31.860Z,100.00
2023-03-26T18:37:08.363Z,100.00
2023-03-26T18:39:34.941Z,100.00
2023-03-26T18:42:01.322Z,100.00
2023-03-26T18:44:27.913Z,100.00
2023-03-26T18:46:55.263Z,100.00
2023-03-26T18:49:21.697Z,100.00
2023-03-26T18:51:56.894Z,100.00
2023-03-26T18:54:24.066Z,100.00
2023-03-26T18:56:52.142Z,100.00
2023-03-26T18:59:35.044Z,100.00
2023-03-26T19:02:07.282Z,100.00
2023-03-26T19:04:34.876Z,100.00
2023-03-26T19:07:01.547Z,100.00
2023-03-26T19:09:32.049Z,100.00
2023-03-26T19:12:17.445Z,100.00
2023-03-26T19:15:12.204Z,100.00
2023-03-26T19:17:45.879Z,100.00
2023-03-26T19:20:21.649Z,100.00
2023-03-26T19:22:48.105Z,100.00
2023-03-26T19:25:26.621Z,100.00
2023-03-26T19:27:53.004Z,100.00
2023-03-26T19:30:33.836Z,100.00
2023-03-26T19:33:12.667Z,100.00
2023-03-26T19:35:40.626Z,100.00
2023-03-26T19:38:23.890Z,100.00
2023-03-26T19:40:52.359Z,100.00
2023-03-26T19:43:18.749Z,100.00
2023-03-26T19:46:00.399Z,100.00
2023-03-26T19:48:46.046Z,100.00
2023-03-26T19:51:19.944Z,100.00
2023-03-26T19:53:53.698Z,100.00
2023-03-26T19:56:20.709Z,100.00
2023-03-26T19:58:47.230Z,100.00
2023-03-26T20:01:19.881Z,100.00
2023-03-26T20:03:48.213Z,100.00
2023-03-26T20:06:16.711Z,100.00
2023-03-26T20:08:43.718Z,100.00
2023-03-26T20:11:21.461Z,100.00
2023-03-26T20:13:48.490Z,100.00
2023-03-26T20:16:20.202Z,100.00
2023-03-26T20:18:47.611Z,100.00
2023-03-26T20:21:14.060Z,100.00
2023-03-26T20:23:40.816Z,100.00
2023-03-26T20:26:11.152Z,100.00
2023-03-26T20:28:47.284Z,100.00
2023-03-26T20:31:17.363Z,100.00
2023-03-26T20:33:43.764Z,100.00
2023-03-26T20:36:12.892Z,100.00
2023-03-26T20:38:40.940Z,100.00
2023-03-26T20:41:10.193Z,100.00
2023-03-26T20:43:36.609Z,100.00
2023-03-26T20:46:03.946Z,100.00
2023-03-26T20:48:30.418Z,100.00
2023-03-26T20:50:57.062Z,100.00
2023-03-26T20:53:23.748Z,100.00
2023-03-26T20:55:51.634Z,100.00
2023-03-26T20:58:31.645Z,100.00
2023-03-26T21:01:00.308Z,100.00
2023-03-26T21:03:26.737Z,100.00
2023-03-26T21:05:53.237Z,100.00
2023-03-26T21:08:20.114Z,100.00
2023-03-26T21:10:46.806Z,100.00
2023-03-26T21:13:19.444Z,100.00
2023-03-26T21:15:46.663Z,100.00
2023-03-26T21:18:13.480Z,100.00
2023-03-26T21:20:40.106Z,100.00
2023-03-26T21:23:06.472Z,100.00
2023-03-26T21:25:42.122Z,100.00
2023-03-26T21:28:42.600Z,100.00
2023-03-26T21:31:23.983Z,100.00
2023-03-26T21:33:50.967Z,100.00
2023-03-26T21:36:18.530Z,100.00
2023-03-26T21:38:45.479Z,100.00
2023-03-26T21:41:23.985Z,100.00
2023-03-26T21:43:51.049Z,100.00
2023-03-26T21:46:17.806Z,100.00
2023-03-26T21:48:44.527Z,100.00
2023-03-26T21:51:14.567Z,100.00
2023-03-26T21:53:42.333Z,100.00
2023-03-26T21:56:40.157Z,100.00
2023-03-26T21:59:10.078Z,100.00
2023-03-26T22:02:01.705Z,100.00
2023-03-26T22:04:58.520Z,100.00
2023-03-26T22:07:47.362Z,100.00
2023-03-26T22:10:13.805Z,100.00
2023-03-26T22:12:40.144Z,100.00
2023-03-26T22:15:07.458Z,100.00
2023-03-26T22:17:33.843Z,100.00
2023-03-26T22:20:01.399Z,100.00
2023-03-26T22:22:28.769Z,100.00
2023-03-26T22:24:55.136Z,100.00
2023-03-26T22:27:21.469Z,100.00
2023-03-26T22:29:48.373Z,100.00
2023-03-26T22:32:14.725Z,100.00
2023-03-26T22:34:42.066Z,100.00
2023-03-26T22:37:08.416Z,100.00
2023-03-26T22:39:34.847Z,100.00
2023-03-26T22:42:03.830Z,100.00
2023-03-26T22:44:31.198Z,100.00
2023-03-26T22:46:57.594Z,100.00
2023-03-26T22:49:27.307Z,100.00
2023-03-26T22:51:53.680Z,100.00
2023-03-26T22:54:20.415Z,100.00
2023-03-26T22:56:46.852Z,100.00
2023-03-26T22:59:13.310Z,100.00
2023-03-26T23:01:40.141Z,100.00
2023-03-26T23:04:07.010Z,100.00
2023-03-26T23:06:33.806Z,100.00
2023-03-26T23:09:01.009Z,100.00
2023-03-26T23:11:29.488Z,100.00
2023-03-26T23:13:56.629Z,100.00
2023-03-26T23:16:23.029Z,100.00
2023-03-26T23:18:49.537Z,100.00
2023-03-26T23:21:20.448Z,100.00
2023-03-26T23:23:47.863Z,100.00
2023-03-26T23:26:15.016Z,100.00
2023-03-26T23:28:41.564Z,100.00
2023-03-26T23:31:09.130Z,100.00
2023-03-26T23:33:37.000Z,100.00
2023-03-26T23:36:08.981Z,100.00
2023-03-26T23:38:43.764Z,100.00
2023-03-26T23:41:15.476Z,100.00
2023-03-26T23:43:53.596Z,100.00
2023-03-26T23:46:23.888Z,100.00
2023-03-26T23:48:55.087Z,100.00
2023-03-26T23:51:21.682Z,100.00
2023-03-26T23:53:49.060Z,100.00
2023-03-26T23:56:16.242Z,100.00
2023-03-26T23:58:42.881Z,100.00
